Time;durP1;ratioP1;P1;durP2;ratioP2;P2;SDS_P1;SDS_P2;PMS_P1;PMS_P2;Temp;Humidity;BMP_temperature;BMP_pressure;BME280_temperature;BME280_humidity;BME280_pressure;Samples;Min_cycle;Max_cycle;Signal;HPM_P1;HPM_P2
2022/06/27 00:00:24;;;;;;;7.78;4.70;;;18.30;99.90;;;;;;4229808;28;20043;-87
2022/06/27 00:02:25;;;;;;;9.27;4.30;;;18.30;99.90;;;;;;4212106;28;20163;-87
2022/06/27 00:04:26;;;;;;;7.97;4.47;;;18.30;99.90;;;;;;4203723;28;20040;-87
2022/06/27 00:06:27;;;;;;;10.20;5.65;;;18.20;99.90;;;;;;4216148;28;20051;-87
2022/06/27 00:08:27;;;;;;;7.72;4.35;;;18.20;99.90;;;;;;4216301;28;20058;-87
2022/06/27 00:10:28;;;;;;;7.15;4.85;;;18.20;99.90;;;;;;4233472;28;20078;-87
2022/06/27 00:12:30;;;;;;;6.50;4.43;;;18.20;99.90;;;;;;4232939;28;20075;-87
2022/06/27 00:14:31;;;;;;;5.82;3.97;;;18.30;99.90;;;;;;4232283;28;20051;-86
2022/06/27 00:16:35;;;;;;;5.80;4.03;;;18.20;99.90;;;;;;4231000;28;20048;-87
2022/06/27 00:18:37;;;;;;;7.65;4.00;;;18.20;99.90;;;;;;4230964;28;20047;-87
2022/06/27 00:20:37;;;;;;;8.18;4.38;;;18.20;99.90;;;;;;4214105;28;20434;-87
2022/06/27 00:22:41;;;;;;;10.02;4.80;;;18.20;99.90;;;;;;4231977;28;20040;-86
2022/06/27 00:24:42;;;;;;;9.07;5.25;;;18.20;99.90;;;;;;4230833;28;20054;-86
2022/06/27 00:26:43;;;;;;;7.28;4.50;;;18.10;99.90;;;;;;4231022;28;20499;-87
2022/06/27 00:28:47;;;;;;;11.07;5.45;;;18.50;99.90;;;;;;4214409;28;20519;-86
2022/06/27 00:30:47;;;;;;;6.30;4.45;;;18.20;99.90;;;;;;4232497;28;20483;-86
2022/06/27 00:32:48;;;;;;;6.68;4.80;;;18.20;99.90;;;;;;4232175;28;20050;-87
2022/06/27 00:34:50;;;;;;;6.35;4.78;;;18.20;99.90;;;;;;4213883;28;20056;-86
2022/06/27 00:36:51;;;;;;;8.50;4.85;;;18.10;99.90;;;;;;4231092;28;20048;-86
2022/06/27 00:38:51;;;;;;;7.05;4.70;;;18.10;99.90;;;;;;4231892;28;20052;-86
2022/06/27 00:40:52;;;;;;;7.45;4.18;;;18.10;99.90;;;;;;4231921;28;20038;-86
2022/06/27 00:42:53;;;;;;;8.23;4.30;;;18.10;99.90;;;;;;4214279;28;20051;-86
2022/06/27 00:44:58;;;;;;;6.47;3.88;;;18.10;99.90;;;;;;4230397;28;20480;-86
2022/06/27 00:46:59;;;;;;;8.98;4.18;;;18.10;99.90;;;;;;4231639;28;20450;-86
2022/06/27 00:49:00;;;;;;;9.75;4.60;;;18.00;99.90;;;;;;4230541;28;20081;-86
2022/06/27 00:51:02;;;;;;;8.23;4.88;;;18.00;99.90;;;;;;4228115;28;20047;-86
2022/06/27 00:53:03;;;;;;;6.65;4.00;;;18.00;99.90;;;;;;4230513;28;20052;-86
2022/06/27 00:55:05;;;;;;;8.35;4.50;;;17.90;99.90;;;;;;4231061;28;20048;-86
2022/06/27 00:57:06;;;;;;;8.05;4.28;;;17.90;99.90;;;;;;4228153;28;20036;-86
2022/06/27 00:59:07;;;;;;;8.05;4.70;;;17.90;99.90;;;;;;4215140;28;20050;-86
2022/06/27 01:01:08;;;;;;;8.98;4.57;;;17.90;99.90;;;;;;4196932;28;20190;-86
2022/06/27 01:03:10;;;;;;;7.35;4.40;;;17.90;99.90;;;;;;4215511;28;20123;-86
2022/06/27 01:05:14;;;;;;;6.68;4.97;;;17.90;99.90;;;;;;4214335;28;20070;-85
2022/06/27 01:07:15;;;;;;;7.93;5.10;;;18.00;99.90;;;;;;4197128;28;20084;-86
2022/06/27 01:09:22;;;;;;;7.20;4.80;;;18.00;99.90;;;;;;4215011;28;20040;-85
2022/06/27 01:11:23;;;;;;;7.05;5.07;;;17.90;99.90;;;;;;4217302;28;20038;-86
2022/06/27 01:13:24;;;;;;;7.75;4.85;;;18.00;99.90;;;;;;4217820;28;20075;-86
2022/06/27 01:15:25;;;;;;;7.15;5.03;;;18.00;99.90;;;;;;4217641;28;20123;-86
2022/06/27 01:17:26;;;;;;;6.65;5.05;;;18.00;99.90;;;;;;4218102;28;20043;-86
2022/06/27 01:19:27;;;;;;;7.60;5.10;;;18.00;99.90;;;;;;4216739;28;20042;-86
2022/06/27 01:21:32;;;;;;;8.88;4.95;;;18.00;99.90;;;;;;4216397;28;20082;-86
2022/06/27 01:23:36;;;;;;;11.30;5.60;;;18.00;99.90;;;;;;4216692;28;20094;-86
2022/06/27 01:25:37;;;;;;;9.27;5.78;;;18.00;99.90;;;;;;4199610;28;20095;-87
2022/06/27 01:27:38;;;;;;;8.20;4.85;;;18.00;99.90;;;;;;4216616;28;20052;-87
2022/06/27 01:29:39;;;;;;;7.95;5.32;;;18.00;99.90;;;;;;4216903;28;20690;-87
2022/06/27 01:31:40;;;;;;;9.63;5.20;;;17.90;99.90;;;;;;4217974;28;20080;-87
2022/06/27 01:33:42;;;;;;;9.13;5.82;;;17.90;99.90;;;;;;4217409;28;20337;-87
2022/06/27 01:35:42;;;;;;;10.40;5.57;;;17.90;99.90;;;;;;4217135;28;20044;-87
2022/06/27 01:37:43;;;;;;;9.00;5.35;;;18.10;99.90;;;;;;4217067;28;20087;-87
2022/06/27 01:39:44;;;;;;;6.28;4.55;;;17.80;99.90;;;;;;4199743;28;20464;-86
2022/06/27 01:41:48;;;;;;;7.68;5.53;;;17.80;99.90;;;;;;4217725;28;20037;-87
2022/06/27 01:43:49;;;;;;;9.57;5.32;;;17.80;99.90;;;;;;4216511;28;20131;-87
2022/06/27 01:45:50;;;;;;;5.95;4.78;;;17.90;99.90;;;;;;4203138;28;20048;-87
2022/06/27 01:47:50;;;;;;;7.30;5.20;;;17.90;99.90;;;;;;4234416;28;20560;-87
2022/06/27 01:49:51;;;;;;;8.25;5.38;;;17.90;99.90;;;;;;4216282;28;20048;-87
2022/06/27 01:51:52;;;;;;;10.13;5.90;;;17.90;99.90;;;;;;4234587;28;20488;-86
2022/06/27 01:53:53;;;;;;;8.95;5.47;;;17.90;99.90;;;;;;4216388;28;20131;-85
2022/06/27 01:55:54;;;;;;;8.25;5.70;;;17.80;99.90;;;;;;4234397;28;20411;-85
2022/06/27 01:57:55;;;;;;;10.30;5.38;;;17.80;99.90;;;;;;4233994;28;20556;-86
2022/06/27 01:59:56;;;;;;;8.32;5.32;;;17.80;99.90;;;;;;4230391;28;20472;-86
2022/06/27 02:01:58;;;;;;;7.47;5.15;;;17.80;99.90;;;;;;4232125;28;20040;-86
2022/06/27 02:03:59;;;;;;;8.05;5.43;;;17.80;99.90;;;;;;4216610;28;20173;-86
2022/06/27 02:06:00;;;;;;;6.68;4.85;;;17.70;99.90;;;;;;4212748;28;20040;-85
2022/06/27 02:08:03;;;;;;;8.38;4.38;;;17.70;99.90;;;;;;4216907;28;20499;-86
2022/06/27 02:10:05;;;;;;;8.85;4.88;;;17.70;99.90;;;;;;4215937;28;20075;-86
2022/06/27 02:12:18;;;;;;;7.97;4.93;;;17.70;99.90;;;;;;4215640;28;20047;-86
2022/06/27 02:14:20;;;;;;;6.45;4.65;;;17.70;99.90;;;;;;4215103;28;20054;-86
2022/06/27 02:16:21;;;;;;;9.52;5.00;;;17.70;99.90;;;;;;4214904;28;20500;-86
2022/06/27 02:18:22;;;;;;;6.07;4.65;;;17.70;99.90;;;;;;4214510;28;20055;-86
2022/06/27 02:20:23;;;;;;;10.40;5.90;;;17.70;99.90;;;;;;4215635;28;20039;-86
2022/06/27 02:22:25;;;;;;;6.78;5.15;;;17.70;99.90;;;;;;4214486;28;20071;-85
2022/06/27 02:24:25;;;;;;;9.35;5.13;;;17.70;99.90;;;;;;4219294;28;20085;-87
2022/06/27 02:26:29;;;;;;;10.20;5.85;;;17.60;99.90;;;;;;4214796;28;20048;-86
2022/06/27 02:28:30;;;;;;;7.68;5.03;;;17.70;99.90;;;;;;4216900;28;20048;-87
2022/06/27 02:30:31;;;;;;;9.23;4.47;;;17.70;99.90;;;;;;4215731;28;20052;-86
2022/06/27 02:32:32;;;;;;;8.88;4.82;;;17.70;99.90;;;;;;4215377;28;20036;-86
2022/06/27 02:34:35;;;;;;;7.85;5.25;;;17.70;99.90;;;;;;4215739;28;20115;-87
2022/06/27 02:36:44;;;;;;;8.45;5.32;;;17.70;99.90;;;;;;4216715;28;20094;-86
2022/06/27 02:38:47;;;;;;;11.40;6.43;;;17.70;99.90;;;;;;4215628;28;20122;-86
2022/06/27 02:40:47;;;;;;;7.28;5.07;;;17.80;99.90;;;;;;4216440;28;20110;-87
2022/06/27 02:42:53;;;;;;;8.82;5.65;;;17.70;99.90;;;;;;4215860;28;20051;-87
2022/06/27 02:44:55;;;;;;;7.30;5.43;;;17.70;99.90;;;;;;4217018;28;20071;-86
2022/06/27 02:46:56;;;;;;;7.25;5.07;;;17.70;99.90;;;;;;4199109;28;20055;-85
2022/06/27 02:48:58;;;;;;;7.43;5.22;;;17.70;99.90;;;;;;4215134;28;20519;-86
2022/06/27 02:51:05;;;;;;;7.95;5.50;;;17.70;99.90;;;;;;4216919;28;20040;-86
2022/06/27 02:53:10;;;;;;;8.35;6.20;;;17.70;99.90;;;;;;4216397;28;20079;-86
2022/06/27 02:55:18;;;;;;;8.02;4.88;;;17.70;99.90;;;;;;4216244;28;20052;-86
2022/06/27 02:57:40;;;;;;;9.63;5.75;;;17.70;99.90;;;;;;4216096;28;20492;-86
2022/06/27 02:59:44;;;;;;;7.30;6.15;;;17.70;99.90;;;;;;4215281;28;20504;-86
2022/06/27 03:01:47;;;;;;;9.18;6.15;;;17.60;99.90;;;;;;4215198;28;20131;-86
2022/06/27 03:03:50;;;;;;;11.15;6.88;;;17.60;99.90;;;;;;4215080;28;20050;-87
2022/06/27 03:06:02;;;;;;;7.47;5.78;;;17.60;99.90;;;;;;4216418;28;20044;-86
2022/06/27 03:08:03;;;;;;;8.15;6.25;;;17.50;99.90;;;;;;4216309;28;20059;-86
2022/06/27 03:10:04;;;;;;;9.95;6.75;;;17.50;99.90;;;;;;4214877;28;20040;-86
2022/06/27 03:12:06;;;;;;;13.25;6.68;;;17.50;99.90;;;;;;4215298;28;20143;-86
2022/06/27 03:14:07;;;;;;;11.13;6.75;;;17.50;99.90;;;;;;4215894;28;20119;-85
2022/06/27 03:16:09;;;;;;;10.02;6.18;;;17.40;99.90;;;;;;4214863;28;20410;-85
2022/06/27 03:18:13;;;;;;;10.25;6.38;;;17.40;99.90;;;;;;4215781;28;20050;-86
2022/06/27 03:20:14;;;;;;;12.63;7.35;;;17.40;99.90;;;;;;4215943;28;20047;-86
2022/06/27 03:22:15;;;;;;;11.35;6.32;;;17.40;99.90;;;;;;4214651;28;20051;-86
2022/06/27 03:24:15;;;;;;;12.30;7.25;;;17.30;99.90;;;;;;4215823;28;20047;-86
2022/06/27 03:26:17;;;;;;;11.88;7.15;;;17.30;99.90;;;;;;4214612;28;20058;-86
2022/06/27 03:28:18;;;;;;;11.05;7.00;;;17.30;99.90;;;;;;4215903;28;20492;-86
2022/06/27 03:30:19;;;;;;;11.50;8.20;;;17.30;99.90;;;;;;4216113;28;20051;-86
2022/06/27 03:32:19;;;;;;;12.88;7.43;;;17.30;99.90;;;;;;4215977;28;20048;-86
2022/06/27 03:34:20;;;;;;;13.35;7.63;;;17.20;99.90;;;;;;4215751;28;20488;-86
2022/06/27 03:36:21;;;;;;;11.32;8.02;;;17.30;99.90;;;;;;4215733;28;20047;-87
2022/06/27 03:38:22;;;;;;;11.77;8.07;;;17.30;99.90;;;;;;4215989;28;20048;-86
2022/06/27 03:40:23;;;;;;;10.93;7.45;;;17.30;99.90;;;;;;4215776;28;20052;-86
2022/06/27 03:42:24;;;;;;;14.77;8.70;;;17.30;99.90;;;;;;4214660;28;20054;-86
2022/06/27 03:44:25;;;;;;;14.13;9.30;;;17.30;99.90;;;;;;4215787;28;20101;-86
2022/06/27 03:46:26;;;;;;;13.82;9.40;;;17.30;99.90;;;;;;4215645;28;20484;-86
2022/06/27 03:50:46;;;;;;;10.68;6.95;;;17.20;99.90;;;;;;4214663;28;20056;-86
2022/06/27 03:52:47;;;;;;;13.57;8.18;;;17.20;99.90;;;;;;4215932;28;20035;-86
2022/06/27 03:54:48;;;;;;;14.05;8.27;;;17.20;99.90;;;;;;4214027;28;20492;-86
2022/06/27 03:56:49;;;;;;;13.80;8.63;;;17.20;99.90;;;;;;4215726;28;20040;-86
2022/06/27 03:58:49;;;;;;;11.68;7.72;;;17.10;99.90;;;;;;4215652;28;20048;-86
2022/06/27 04:00:50;;;;;;;10.38;7.70;;;17.20;99.90;;;;;;4197438;28;20048;-86
2022/06/27 04:02:53;;;;;;;11.93;7.88;;;17.10;99.90;;;;;;4214477;28;20432;-85
2022/06/27 04:04:53;;;;;;;12.95;7.65;;;17.20;99.90;;;;;;4214320;28;20131;-86
2022/06/27 04:06:54;;;;;;;9.90;6.65;;;17.10;99.90;;;;;;4198121;28;20056;-86
2022/06/27 04:08:55;;;;;;;11.85;7.05;;;17.10;99.90;;;;;;4214486;28;20417;-86
2022/06/27 04:10:56;;;;;;;16.35;7.72;;;17.10;99.90;;;;;;4214910;28;20106;-86
2022/06/27 04:12:57;;;;;;;13.93;7.40;;;17.10;99.90;;;;;;4215174;28;20793;-87
2022/06/27 04:14:58;;;;;;;12.38;7.60;;;17.10;99.90;;;;;;4227497;28;20082;-87
2022/06/27 04:16:58;;;;;;;9.00;6.55;;;17.20;99.90;;;;;;4231823;28;20052;-86
2022/06/27 04:18:59;;;;;;;8.40;6.50;;;17.10;99.90;;;;;;4231317;28;20054;-87
2022/06/27 04:21:00;;;;;;;10.18;5.72;;;17.20;99.90;;;;;;4232669;28;20414;-86
2022/06/27 04:23:02;;;;;;;8.48;6.75;;;17.20;99.90;;;;;;4231164;28;20466;-87
2022/06/27 04:25:04;;;;;;;8.40;5.50;;;17.00;99.90;;;;;;4232462;28;20131;-86
2022/06/27 04:27:05;;;;;;;10.60;6.28;;;17.20;99.90;;;;;;4230557;28;20048;-87
2022/06/27 04:29:07;;;;;;;9.65;6.13;;;17.20;99.90;;;;;;4230767;28;20104;-86
2022/06/27 04:31:10;;;;;;;7.55;5.25;;;17.20;99.90;;;;;;4231784;28;20431;-86
2022/06/27 04:33:11;;;;;;;7.82;5.85;;;17.20;99.90;;;;;;4232142;28;20055;-86
2022/06/27 04:35:12;;;;;;;9.35;5.28;;;17.20;99.90;;;;;;4231677;28;20120;-86
2022/06/27 04:37:14;;;;;;;9.32;5.28;;;17.20;99.90;;;;;;4231034;28;20044;-86
2022/06/27 04:39:19;;;;;;;7.70;5.45;;;17.20;99.90;;;;;;4232309;28;20063;-86
2022/06/27 04:41:20;;;;;;;7.45;4.97;;;17.20;99.90;;;;;;4232318;28;20050;-86
2022/06/27 04:43:22;;;;;;;10.13;5.50;;;17.30;99.90;;;;;;4230584;28;20050;-87
2022/06/27 04:45:23;;;;;;;9.38;5.20;;;17.30;99.90;;;;;;4213801;28;20054;-87
2022/06/27 04:47:24;;;;;;;9.07;5.65;;;17.30;99.90;;;;;;4235566;28;20048;-86
2022/06/27 04:49:25;;;;;;;6.72;5.25;;;17.30;99.90;;;;;;4233912;28;20044;-85
2022/06/27 04:51:25;;;;;;;7.20;5.13;;;17.40;99.90;;;;;;4235125;28;20077;-86
2022/06/27 04:53:27;;;;;;;7.43;5.15;;;17.40;99.90;;;;;;4235676;28;20051;-86
2022/06/27 04:55:29;;;;;;;7.50;4.90;;;17.40;99.90;;;;;;4234912;28;20092;-85
2022/06/27 04:57:32;;;;;;;7.28;5.00;;;17.40;99.90;;;;;;4235029;28;20047;-85
2022/06/27 04:59:33;;;;;;;7.03;4.65;;;17.40;99.90;;;;;;4234115;28;20043;-85
2022/06/27 05:01:34;;;;;;;8.07;4.75;;;17.50;99.90;;;;;;4217329;28;20116;-85
2022/06/27 05:03:34;;;;;;;7.63;4.63;;;17.40;99.90;;;;;;4235329;28;20368;-85
2022/06/27 05:05:35;;;;;;;6.18;3.75;;;17.40;99.90;;;;;;4235174;28;20036;-86
2022/06/27 05:07:36;;;;;;;5.80;3.75;;;17.50;99.90;;;;;;4234954;27;20039;-86
2022/06/27 05:09:37;;;;;;;9.02;4.38;;;17.30;99.90;;;;;;4234511;27;20471;-86
2022/06/27 05:11:38;;;;;;;7.63;3.85;;;17.50;99.90;;;;;;4235025;28;20506;-86
2022/06/27 05:13:39;;;;;;;8.73;4.07;;;17.50;99.90;;;;;;4233361;28;20085;-86
2022/06/27 05:15:40;;;;;;;6.53;4.10;;;17.50;99.90;;;;;;4235060;28;20134;-85
2022/06/27 05:17:43;;;;;;;6.18;3.60;;;17.60;99.90;;;;;;4234901;28;20044;-85
2022/06/27 05:19:44;;;;;;;6.78;4.30;;;17.60;99.90;;;;;;4233494;28;20054;-85
2022/06/27 05:21:45;;;;;;;4.40;3.47;;;17.60;99.90;;;;;;4234759;28;20115;-86
2022/06/27 05:23:46;;;;;;;4.60;3.70;;;17.70;99.90;;;;;;4233628;28;20031;-85
2022/06/27 05:25:47;;;;;;;3.58;3.10;;;17.70;99.90;;;;;;4234586;28;20044;-86
2022/06/27 05:27:49;;;;;;;3.65;2.90;;;17.70;99.90;;;;;;4234663;28;20508;-86
2022/06/27 05:29:52;;;;;;;5.32;2.60;;;17.70;99.90;;;;;;4234923;27;20546;-86
2022/06/27 05:31:53;;;;;;;4.43;2.40;;;17.70;99.90;;;;;;4234812;28;20058;-86
2022/06/27 05:33:54;;;;;;;7.68;2.50;;;17.60;99.90;;;;;;4234677;28;20122;-85
2022/06/27 05:35:55;;;;;;;3.25;2.22;;;17.60;99.90;;;;;;4234798;28;20043;-86
2022/06/27 05:37:56;;;;;;;4.50;2.55;;;17.50;99.90;;;;;;4234347;28;20041;-86
2022/06/27 05:39:57;;;;;;;3.10;2.53;;;17.60;99.90;;;;;;4234274;27;20483;-86
2022/06/27 05:41:58;;;;;;;3.97;2.30;;;17.50;99.90;;;;;;4233088;28;20106;-86
2022/06/27 05:44:00;;;;;;;4.35;2.30;;;17.50;99.90;;;;;;4233958;27;20070;-86
2022/06/27 05:46:01;;;;;;;3.17;2.00;;;17.50;99.90;;;;;;4234674;28;20433;-86
2022/06/27 05:48:03;;;;;;;2.42;2.20;;;17.50;99.90;;;;;;4234175;28;20115;-87
2022/06/27 05:50:05;;;;;;;2.90;2.00;;;17.50;99.90;;;;;;4233090;28;20138;-86
2022/06/27 05:52:06;;;;;;;3.67;2.30;;;17.50;99.90;;;;;;4232967;28;20092;-87
2022/06/27 05:54:09;;;;;;;1.98;1.77;;;17.60;99.90;;;;;;4232784;28;20047;-87
2022/06/27 05:56:10;;;;;;;4.80;2.28;;;17.60;99.90;;;;;;4233078;28;20056;-86
2022/06/27 05:58:13;;;;;;;2.65;1.92;;;17.70;99.90;;;;;;4234144;28;20099;-86
2022/06/27 06:00:15;;;;;;;2.35;2.00;;;17.90;99.90;;;;;;4233900;28;20503;-86
2022/06/27 06:02:18;;;;;;;2.60;2.30;;;17.90;99.90;;;;;;4215701;28;20412;-87
2022/06/27 06:04:20;;;;;;;2.22;1.83;;;18.00;99.90;;;;;;4222097;28;20069;-86
2022/06/27 06:06:22;;;;;;;3.17;2.15;;;18.10;99.90;;;;;;4229376;28;20047;-87
2022/06/27 06:08:23;;;;;;;3.58;1.58;;;18.20;99.90;;;;;;4233069;28;20040;-86
2022/06/27 06:10:25;;;;;;;2.22;1.70;;;18.20;99.90;;;;;;4221129;28;20056;-86
2022/06/27 06:12:26;;;;;;;3.67;1.30;;;18.20;99.90;;;;;;4217099;28;20097;-86
2022/06/27 06:14:28;;;;;;;3.38;1.65;;;18.30;99.90;;;;;;4216138;28;20059;-86
2022/06/27 06:16:29;;;;;;;1.45;1.35;;;18.20;99.90;;;;;;4216958;28;20409;-87
2022/06/27 06:18:32;;;;;;;1.85;1.50;;;18.20;99.90;;;;;;4215414;28;20048;-87
2022/06/27 06:20:33;;;;;;;1.88;1.55;;;18.20;99.90;;;;;;4217335;28;20044;-87
2022/06/27 06:22:34;;;;;;;2.80;2.20;;;18.30;99.90;;;;;;4228931;28;20596;-88
2022/06/27 06:24:34;;;;;;;4.75;1.90;;;18.20;99.90;;;;;;4234312;28;20043;-87
2022/06/27 06:26:35;;;;;;;2.88;2.10;;;18.20;99.90;;;;;;4233527;28;20059;-87
2022/06/27 06:28:36;;;;;;;3.38;1.80;;;18.20;99.90;;;;;;4234476;28;20081;-88
2022/06/27 06:30:38;;;;;;;1.85;1.73;;;18.20;99.90;;;;;;4233816;28;20087;-87
2022/06/27 06:32:39;;;;;;;3.28;2.00;;;18.20;99.90;;;;;;4233070;28;20084;-87
2022/06/27 06:34:41;;;;;;;3.03;1.70;;;18.20;99.90;;;;;;4234191;28;20039;-86
2022/06/27 06:36:44;;;;;;;3.28;1.85;;;18.20;99.90;;;;;;4232418;28;20047;-87
2022/06/27 06:38:46;;;;;;;2.47;2.05;;;18.20;99.90;;;;;;4232551;28;20052;-88
2022/06/27 06:40:47;;;;;;;2.83;2.15;;;18.20;99.90;;;;;;4229542;28;20488;-86
2022/06/27 06:42:48;;;;;;;4.25;2.22;;;18.00;99.90;;;;;;4222012;28;20122;-86
2022/06/27 06:44:52;;;;;;;3.95;1.80;;;18.20;99.90;;;;;;4231739;28;20537;-85
2022/06/27 06:46:55;;;;;;;2.38;1.90;;;18.20;99.90;;;;;;4227125;28;20047;-85
2022/06/27 06:48:58;;;;;;;2.85;1.98;;;18.20;99.90;;;;;;4214229;28;20048;-85
2022/06/27 06:50:59;;;;;;;2.75;1.90;;;18.20;99.90;;;;;;4215170;28;20424;-86
2022/06/27 06:53:00;;;;;;;2.58;1.90;;;18.20;99.90;;;;;;4215695;28;20088;-86
2022/06/27 06:55:01;;;;;;;4.18;2.30;;;18.20;99.90;;;;;;4215620;28;20040;-86
2022/06/27 06:57:02;;;;;;;2.70;2.05;;;18.20;99.90;;;;;;4219915;28;20522;-87
2022/06/27 06:59:03;;;;;;;2.30;1.80;;;18.20;99.90;;;;;;4220508;28;20032;-85
2022/06/27 07:01:06;;;;;;;2.90;2.00;;;;;;;;;;4215733;28;20032;-85
2022/06/27 07:03:08;;;;;;;4.55;2.28;;;;;;;;;;4215467;28;20055;-87
2022/06/27 07:05:11;;;;;;;4.15;2.20;;;;;;;;;;4215807;28;20131;-85
2022/06/27 07:07:14;;;;;;;2.20;2.00;;;;;;;;;;4216343;28;20043;-86
2022/06/27 07:09:15;;;;;;;3.90;2.25;;;;;;;;;;4218291;28;20481;-84
2022/06/27 07:11:16;;;;;;;2.85;2.08;;;;;;;;;;4213571;28;20032;-86
2022/06/27 07:13:18;;;;;;;3.08;2.30;;;;;;;;;;4217764;28;20088;-86
2022/06/27 07:15:20;;;;;;;3.70;2.20;;;;;;;;;;4214141;28;20119;-85
2022/06/27 07:17:25;;;;;;;3.10;2.15;;;;;;;;;;4225198;28;20055;-85
2022/06/27 07:19:27;;;;;;;2.40;2.05;;;;;;;;;;4214932;28;20044;-85
2022/06/27 07:21:31;;;;;;;2.67;1.92;;;;;;;;;;4216737;28;20039;-85
2022/06/27 07:23:32;;;;;;;2.45;2.05;;;;;;;;;;4214191;28;20090;-85
2022/06/27 07:25:35;;;;;;;4.38;2.00;;;;;;;;;;4214391;28;20052;-85
2022/06/27 07:27:36;;;;;;;2.53;2.13;;;;;;;;;;4220658;28;20491;-84
2022/06/27 07:29:38;;;;;;;3.25;2.20;;;;;;;;;;4221214;28;20396;-85
2022/06/27 07:31:39;;;;;;;2.80;2.28;;;;;;;;;;4214535;28;20059;-84
2022/06/27 07:33:41;;;;;;;2.75;1.90;;;;;;;;;;4218515;28;20070;-84
2022/06/27 07:38:08;;;;;;;3.78;2.00;;;;;;;;;;4223771;28;20086;-84
2022/06/27 07:40:09;;;;;;;3.13;2.15;;;;;;;;;;4223663;28;20126;-84
2022/06/27 07:42:10;;;;;;;2.90;1.75;;;18.20;99.90;;;;;;4219981;28;20487;-84
2022/06/27 07:44:10;;;;;;;3.38;2.20;;;18.20;99.90;;;;;;4229464;28;20048;-84
2022/06/27 07:46:11;;;;;;;4.28;2.67;;;18.30;99.90;;;;;;4216145;28;20589;-84
2022/06/27 07:48:12;;;;;;;2.83;1.90;;;18.20;99.90;;;;;;4214439;28;20494;-84
2022/06/27 07:53:11;;;;;;;2.10;1.90;;;18.20;99.90;;;;;;4215593;28;20056;-84
2022/06/27 07:54:55;;;;;;;4.70;2.13;;;18.20;99.90;;;;;;4215198;28;20080;-86
2022/06/27 07:56:55;;;;;;;2.90;2.08;;;18.20;99.90;;;;;;4215830;28;20109;-86
2022/06/27 07:58:56;;;;;;;3.75;2.03;;;18.10;99.90;;;;;;4219635;28;20028;-86
2022/06/27 08:00:59;;;;;;;2.15;1.85;;;18.10;99.90;;;;;;4232623;28;20103;-85
2022/06/27 08:03:36;;;;;;;3.85;2.78;;;18.20;99.90;;;;;;4232609;28;20407;-85
2022/06/27 08:05:20;;;;;;;3.28;2.30;;;18.20;99.90;;;;;;4232563;28;20044;-85
2022/06/27 08:07:21;;;;;;;3.75;2.00;;;18.20;99.90;;;;;;4232390;28;20043;-85
2022/06/27 08:09:23;;;;;;;2.50;2.20;;;18.20;99.90;;;;;;4232943;28;20070;-86
2022/06/27 08:11:34;;;;;;;2.65;2.05;;;18.30;99.90;;;;;;4249681;27;20054;-85
2022/06/27 08:13:35;;;;;;;3.47;2.08;;;18.30;99.90;;;;;;4249163;28;20054;-85
2022/06/27 08:15:36;;;;;;;2.72;1.80;;;18.40;99.90;;;;;;4249856;27;20043;-85
2022/06/27 08:17:37;;;;;;;2.20;1.83;;;18.40;99.90;;;;;;4248453;28;20412;-84
2022/06/27 08:19:38;;;;;;;4.88;2.40;;;18.40;99.90;;;;;;4248598;27;20058;-84
2022/06/27 08:21:41;;;;;;;2.42;2.17;;;18.40;99.90;;;;;;4242892;27;20052;-83
2022/06/27 08:23:44;;;;;;;2.78;2.33;;;18.40;99.90;;;;;;4234517;28;20095;-85
2022/06/27 08:25:47;;;;;;;2.97;1.90;;;18.40;99.90;;;;;;4235239;28;20104;-85
2022/06/27 08:27:48;;;;;;;3.95;2.75;;;18.50;99.90;;;;;;4235826;28;20051;-85
2022/06/27 08:29:48;;;;;;;3.15;2.55;;;18.50;99.90;;;;;;4234567;28;20538;-85
2022/06/27 08:31:52;;;;;;;2.72;1.98;;;18.50;99.90;;;;;;4235798;28;20122;-85
2022/06/27 08:33:58;;;;;;;2.72;2.45;;;18.60;99.90;;;;;;4233662;28;20047;-86
2022/06/27 08:36:01;;;;;;;2.53;2.20;;;18.60;99.90;;;;;;4235280;28;20050;-85
2022/06/27 08:38:02;;;;;;;2.35;2.05;;;18.60;99.90;;;;;;4234995;28;20054;-84
2022/06/27 08:40:06;;;;;;;3.83;2.28;;;18.70;99.90;;;;;;4217144;28;20129;-85
2022/06/27 08:42:08;;;;;;;3.17;2.47;;;18.70;99.90;;;;;;4235149;28;20040;-85
2022/06/27 08:44:09;;;;;;;4.13;2.55;;;18.70;99.90;;;;;;4235341;28;20047;-85
2022/06/27 08:46:15;;;;;;;4.55;2.85;;;18.70;99.90;;;;;;4234842;28;20044;-84
2022/06/27 08:48:18;;;;;;;2.65;2.13;;;18.80;99.90;;;;;;4234952;28;20058;-85
2022/06/27 08:50:19;;;;;;;2.90;2.22;;;18.80;99.90;;;;;;4234029;28;20044;-86
2022/06/27 08:52:20;;;;;;;4.38;2.50;;;18.90;99.90;;;;;;4234944;28;20114;-86
2022/06/27 08:54:21;;;;;;;2.88;2.40;;;18.90;99.90;;;;;;4234213;28;20039;-85
2022/06/27 08:56:30;;;;;;;4.85;2.30;;;18.90;99.90;;;;;;4235217;27;20043;-86
2022/06/27 08:58:31;;;;;;;3.53;2.25;;;18.90;99.90;;;;;;4235266;28;20044;-86
2022/06/27 09:00:33;;;;;;;4.65;2.80;;;19.00;99.90;;;;;;4234702;28;20054;-86
2022/06/27 09:02:46;;;;;;;3.30;2.45;;;19.00;99.90;;;;;;4234503;27;20123;-85
2022/06/27 09:04:58;;;;;;;4.13;2.78;;;19.00;99.90;;;;;;4235076;28;20105;-86
2022/06/27 09:06:59;;;;;;;2.95;2.50;;;19.00;99.90;;;;;;4234215;28;20051;-85
2022/06/27 09:09:07;;;;;;;3.35;2.47;;;19.00;99.90;;;;;;4232845;28;20451;-85
2022/06/27 09:11:07;;;;;;;3.63;2.60;;;19.00;99.90;;;;;;4219885;28;20051;-85
2022/06/27 09:13:11;;;;;;;4.47;2.22;;;18.90;99.90;;;;;;4217704;28;20408;-84
2022/06/27 09:15:12;;;;;;;3.63;2.20;;;19.00;99.90;;;;;;4217810;28;20069;-84
2022/06/27 09:17:15;;;;;;;2.42;2.13;;;18.90;99.90;;;;;;4218130;28;20032;-85
2022/06/27 09:19:16;;;;;;;2.65;2.30;;;19.00;99.90;;;;;;4218539;28;20101;-85
2022/06/27 09:21:17;;;;;;;5.18;2.53;;;19.10;99.90;;;;;;4216704;28;20059;-85
2022/06/27 09:23:42;;;;;;;3.05;2.25;;;19.20;99.90;;;;;;4217542;28;20084;-85
2022/06/27 09:25:43;;;;;;;3.00;2.40;;;19.30;99.90;;;;;;4215932;28;20051;-85
2022/06/27 09:27:47;;;;;;;3.47;2.40;;;19.30;99.90;;;;;;4217557;28;20100;-84
2022/06/27 09:29:48;;;;;;;3.40;2.33;;;19.30;99.90;;;;;;4198761;28;20071;-85
2022/06/27 09:31:51;;;;;;;2.72;2.13;;;19.30;99.90;;;;;;4215735;28;20044;-84
2022/06/27 09:34:16;;;;;;;2.65;2.13;;;19.30;99.90;;;;;;4216476;28;20070;-85
2022/06/27 09:36:17;;;;;;;3.22;2.30;;;19.30;99.90;;;;;;4217213;28;20488;-84
2022/06/27 09:38:18;;;;;;;3.67;2.33;;;19.30;99.90;;;;;;4217384;28;20047;-84
2022/06/27 09:40:24;;;;;;;3.80;2.75;;;19.20;99.90;;;;;;4216857;28;20032;-85
2022/06/27 09:42:26;;;;;;;3.35;2.40;;;19.10;99.90;;;;;;4216619;28;20036;-84
2022/06/27 09:44:41;;;;;;;4.93;2.60;;;19.20;99.90;;;;;;4216947;28;20499;-84
2022/06/27 09:46:50;;;;;;;5.57;2.53;;;19.10;99.90;;;;;;4215517;28;20496;-84
2022/06/27 09:48:52;;;;;;;3.13;2.40;;;19.10;99.90;;;;;;4214610;28;20040;-84
2022/06/27 09:50:54;;;;;;;3.97;2.58;;;19.00;99.90;;;;;;4223922;28;20043;-83
2022/06/27 09:52:55;;;;;;;3.80;2.75;;;19.00;99.90;;;;;;4234171;28;20035;-85
2022/06/27 09:54:56;;;;;;;4.30;2.53;;;19.00;99.90;;;;;;4227213;28;20045;-86
2022/06/27 09:56:59;;;;;;;4.80;2.33;;;19.00;99.90;;;;;;4216748;28;20047;-85
2022/06/27 09:59:00;;;;;;;4.82;3.10;;;19.10;99.90;;;;;;4227513;28;20130;-85
2022/06/27 10:01:01;;;;;;;4.40;3.08;;;19.10;99.90;;;;;;4217048;28;20123;-84
2022/06/27 10:03:05;;;;;;;3.53;2.53;;;19.10;99.90;;;;;;4216943;28;20481;-88
2022/06/27 10:05:06;;;;;;;3.33;2.85;;;19.20;99.90;;;;;;4214695;28;20100;-87
2022/06/27 10:07:08;;;;;;;4.03;2.80;;;19.20;99.90;;;;;;4219437;28;20101;-84
2022/06/27 10:09:12;;;;;;;8.18;3.80;;;19.30;99.90;;;;;;4228064;28;20054;-85
2022/06/27 10:11:13;;;;;;;5.35;2.42;;;19.30;99.90;;;;;;4232546;28;20040;-85
2022/06/27 10:13:14;;;;;;;7.00;3.30;;;19.30;99.90;;;;;;4218839;28;20040;-85
2022/06/27 10:15:19;;;;;;;4.65;2.90;;;19.30;99.90;;;;;;4221091;27;20122;-85
2022/06/27 10:17:25;;;;;;;5.50;3.72;;;19.40;99.90;;;;;;4249515;27;20494;-89
2022/06/27 10:19:29;;;;;;;5.97;3.55;;;19.40;99.90;;;;;;4249393;27;20071;-84
2022/06/27 10:21:31;;;;;;;5.45;3.13;;;19.30;99.90;;;;;;4250768;27;20047;-84
2022/06/27 10:23:37;;;;;;;5.30;3.40;;;19.40;99.90;;;;;;4249618;27;20099;-84
2022/06/27 10:25:44;;;;;;;5.85;3.15;;;19.40;99.90;;;;;;4235841;27;20067;-84
2022/06/27 10:27:49;;;;;;;5.95;3.72;;;19.50;99.90;;;;;;4232482;28;20051;-85
2022/06/27 10:29:50;;;;;;;3.63;2.92;;;19.50;99.90;;;;;;4232699;28;20043;-85
2022/06/27 10:31:51;;;;;;;4.60;3.03;;;19.60;99.90;;;;;;4234272;28;20158;-85
2022/06/27 10:33:53;;;;;;;6.45;3.22;;;19.60;99.90;;;;;;4233612;28;20403;-85
2022/06/27 10:36:02;;;;;;;3.47;2.83;;;19.60;99.90;;;;;;4233235;27;20047;-85
2022/06/27 10:38:23;;;;;;;3.75;3.05;;;19.60;99.90;;;;;;4233729;28;20160;-85
2022/06/27 10:40:24;;;;;;;5.22;2.78;;;19.60;99.90;;;;;;4233532;28;20801;-85
2022/06/27 10:42:43;;;;;;;7.57;3.25;;;19.60;99.90;;;;;;4219904;28;20055;-85
2022/06/27 10:44:44;;;;;;;6.03;3.33;;;19.60;99.90;;;;;;4220950;28;20054;-85
2022/06/27 10:46:45;;;;;;;4.72;3.38;;;19.70;99.90;;;;;;4216655;28;20145;-85